Time;durP1;ratioP1;P1;durP2;ratioP2;P2;SDS_P1;SDS_P2;PMS_P1;PMS_P2;Temp;Humidity;BMP_temperature;BMP_pressure;BME280_temperature;BME280_humidity;BME280_pressure;Samples;Min_cycle;Max_cycle;Signal;HPM_P1;HPM_P2
2021/09/21 00:00:29;;;;;;;0.47;0.30;;;;;;;;;;5049030;28;20044;-56
2021/09/21 00:02:54;;;;;;;0.73;0.32;;;;;;;;;;5049317;28;20099;-56
2021/09/21 00:05:20;;;;;;;2.10;0.40;;;;;;;;;;5028454;28;22507;-56
2021/09/21 00:07:46;;;;;;;1.10;0.35;;;;;;;;;;5049760;28;20382;-55
2021/09/21 00:10:12;;;;;;;1.08;0.30;;;;;;;;;;5049774;28;20040;-56
2021/09/21 00:12:38;;;;;;;0.70;0.30;;;;;;;;;;5046542;28;20052;-55
2021/09/21 00:15:05;;;;;;;1.10;0.30;;;;;;;;;;5048666;28;20043;-56
2021/09/21 00:17:31;;;;;;;1.42;0.40;;;;;;;;;;5046665;28;20073;-56
2021/09/21 00:19:57;;;;;;;4.07;0.50;;;;;;;;;;5050357;28;20143;-56
2021/09/21 00:22:23;;;;;;;0.88;0.32;;;;;;;;;;5050035;28;20124;-55
2021/09/21 00:24:48;;;;;;;0.85;0.30;;;;;;;;;;5048115;28;20777;-56
2021/09/21 00:27:14;;;;;;;0.77;0.40;;;;;;;;;;5046450;28;20114;-56
2021/09/21 00:29:40;;;;;;;1.08;0.40;;;;;;;;;;5047365;28;20421;-56
2021/09/21 00:32:13;;;;;;;1.20;0.40;;;;;;;;;;5047604;28;20144;-55
2021/09/21 00:34:39;;;;;;;0.45;0.30;;;;;;;;;;5045713;28;20047;-56
2021/09/21 00:37:06;;;;;;;1.38;0.50;;;;;;;;;;5046603;28;20942;-55
2021/09/21 00:39:32;;;;;;;0.47;0.28;;;;;;;;;;5047518;28;20032;-56
2021/09/21 00:41:58;;;;;;;1.63;0.40;;;;;;;;;;5048211;28;20052;-56
2021/09/21 00:44:23;;;;;;;0.60;0.30;;;;;;;;;;5047623;28;20071;-56
2021/09/21 00:46:49;;;;;;;1.48;0.50;;;;;;;;;;5047336;28;20142;-55
2021/09/21 00:49:15;;;;;;;0.75;0.30;;;;;;;;;;5047873;28;20044;-55
2021/09/21 00:51:42;;;;;;;0.98;0.35;;;;;;;;;;5045923;28;20048;-56
2021/09/21 00:54:07;;;;;;;3.85;0.40;;;;;;;;;;5046243;28;20037;-56
2021/09/21 00:56:33;;;;;;;3.05;0.50;;;;;;;;;;5044659;28;20040;-56
2021/09/21 00:58:59;;;;;;;1.00;0.35;;;;;;;;;;5046242;28;20066;-53
2021/09/21 01:01:25;;;;;;;1.25;0.47;;;;;;;;;;5047826;28;20032;-55
2021/09/21 01:03:51;;;;;;;1.02;0.35;;;;;;;;;;5048406;28;20037;-56
2021/09/21 01:06:17;;;;;;;1.70;0.40;;;;;;;;;;5046077;28;20044;-56
2021/09/21 01:08:42;;;;;;;1.52;0.40;;;;;;;;;;5046605;28;20044;-57
2021/09/21 01:11:10;;;;;;;2.03;0.50;;;;;;;;;;5046491;28;20043;-56
2021/09/21 01:13:36;;;;;;;1.33;0.47;;;;;;;;;;5045064;28;20816;-55
2021/09/21 01:16:02;;;;;;;2.63;0.30;;;;;;;;;;5047853;28;20036;-56
2021/09/21 01:18:28;;;;;;;1.17;0.43;;;;;;;;;;5047605;28;20051;-56
2021/09/21 01:21:00;;;;;;;1.17;0.40;;;;;;;;;;5049095;28;20051;-56
2021/09/21 01:23:26;;;;;;;2.28;0.43;;;;;;;;;;5047105;28;20036;-56
2021/09/21 01:25:55;;;;;;;1.25;0.40;;;;;;;;;;5046812;28;20061;-57
2021/09/21 01:28:20;;;;;;;0.88;0.40;;;;;;;;;;5027857;28;20068;-55
2021/09/21 01:30:46;;;;;;;0.63;0.40;;;;;;;;;;5048071;28;20639;-56
2021/09/21 01:33:12;;;;;;;0.95;0.40;;;;;;;;;;5048070;28;20171;-56
2021/09/21 01:35:38;;;;;;;6.80;0.52;;;;;;;;;;5047287;28;20044;-55
2021/09/21 01:38:03;;;;;;;1.35;0.40;;;;;;;;;;5046915;28;20063;-56
2021/09/21 01:40:29;;;;;;;1.35;0.40;;;;;;;;;;5048839;28;20048;-53
2021/09/21 01:42:55;;;;;;;3.05;0.60;;;;;;;;;;5042737;28;20082;-55
2021/09/21 01:45:21;;;;;;;2.10;0.50;;;;;;;;;;5052671;28;20053;-56
2021/09/21 01:47:48;;;;;;;1.73;0.55;;;;;;;;;;5051196;28;20444;-57
2021/09/21 01:53:39;;;;;;;1.75;0.52;;;;;;;;;;5051536;28;20116;-56
2021/09/21 01:58:46;;;;;;;1.35;0.40;;;;;;;;;;5053497;28;20101;-54
2021/09/21 02:01:05;;;;;;;1.95;0.45;;;;;;;;;;5050154;28;20412;-56
2021/09/21 02:03:31;;;;;;;1.23;0.50;;;;;;;;;;5050790;28;20045;-55
2021/09/21 02:05:56;;;;;;;1.48;0.50;;;;;;;;;;5029811;28;20036;-56
2021/09/21 02:08:22;;;;;;;0.57;0.30;;;;;;;;;;5048638;28;20144;-56
2021/09/21 02:10:48;;;;;;;1.35;0.50;;;;;;;;;;5049481;28;20056;-54
2021/09/21 02:13:14;;;;;;;0.95;0.30;;;;;;;;;;5050854;28;20041;-55
2021/09/21 02:15:40;;;;;;;1.13;0.40;;;;;;;;;;5052157;28;20039;-55
2021/09/21 02:18:07;;;;;;;2.70;0.45;;;;;;;;;;5051924;28;20047;-56
2021/09/21 02:20:32;;;;;;;1.95;0.50;;;;;;;;;;5049021;28;20115;-56
2021/09/21 02:22:58;;;;;;;1.42;0.50;;;;;;;;;;5050006;28;20504;-53
2021/09/21 02:25:24;;;;;;;1.00;0.40;;;;;;;;;;5049877;28;20048;-56
2021/09/21 02:27:50;;;;;;;1.77;0.55;;;;;;;;;;5047937;28;20060;-56
2021/09/21 02:30:16;;;;;;;1.35;0.50;;;;;;;;;;5050203;28;20327;-55
2021/09/21 02:32:42;;;;;;;1.52;0.47;;;;;;;;;;5050841;28;20044;-56
2021/09/21 02:35:08;;;;;;;1.92;0.50;;;;;;;;;;5047104;28;20044;-56
2021/09/21 02:37:34;;;;;;;1.15;0.50;;;;;;;;;;5049891;28;20102;-56
2021/09/21 02:40:00;;;;;;;4.15;0.70;;;;;;;;;;5049352;28;20048;-55
2021/09/21 02:42:27;;;;;;;1.17;0.45;;;;;;;;;;5044872;28;20259;-55
2021/09/21 02:44:53;;;;;;;1.52;0.40;;;;;;;;;;5048330;28;20041;-56
2021/09/21 02:47:18;;;;;;;3.65;0.60;;;;;;;;;;5047605;28;20059;-56
2021/09/21 02:49:44;;;;;;;1.63;0.52;;;;;;;;;;5032691;28;20037;-56
2021/09/21 02:52:10;;;;;;;2.35;0.70;;;;;;;;;;5048830;28;20049;-55
2021/09/21 02:54:36;;;;;;;1.50;0.57;;;;;;;;;;5047153;28;20036;-56
2021/09/21 02:57:02;;;;;;;4.00;0.68;;;;;;;;;;5048694;28;20044;-56
2021/09/21 02:59:27;;;;;;;2.88;0.55;;;;;;;;;;5047670;28;20100;-55
2021/09/21 03:01:53;;;;;;;3.08;0.60;;;;;;;;;;5048990;28;20037;-55
2021/09/21 03:04:26;;;;;;;2.78;0.60;;;;;;;;;;5048885;28;20044;-56
2021/09/21 03:07:01;;;;;;;3.05;0.70;;;;;;;;;;5048782;28;20059;-56
2021/09/21 03:17:27;;;;;;;1.52;0.50;;;;;;;;;;5033891;28;20068;-55
2021/09/21 03:19:53;;;;;;;3.95;0.80;;;;;;;;;;5048685;28;20045;-56
2021/09/21 03:22:20;;;;;;;2.28;0.45;;;;;;;;;;5049090;28;20056;-55
2021/09/21 03:24:45;;;;;;;2.67;0.70;;;;;;;;;;5048608;28;20044;-55
2021/09/21 03:27:11;;;;;;;3.33;0.50;;;;;;;;;;5048591;28;20032;-55
2021/09/21 03:29:37;;;;;;;1.85;0.60;;;;;;;;;;5029775;28;20114;-56
2021/09/21 03:32:03;;;;;;;2.03;0.60;;;;;;;;;;5029503;28;20056;-56
2021/09/21 03:34:31;;;;;;;1.83;0.60;;;;;;;;;;5048295;28;20048;-56
2021/09/21 03:36:57;;;;;;;2.67;0.55;;;;;;;;;;5047517;28;20044;-55
2021/09/21 03:39:23;;;;;;;1.88;0.60;;;;;;;;;;5048041;28;20111;-55
2021/09/21 03:41:49;;;;;;;5.47;0.60;;;;;;;;;;5047106;28;20043;-56
2021/09/21 03:44:15;;;;;;;1.90;0.60;;;;;;;;;;5048512;28;20045;-56
2021/09/21 03:46:41;;;;;;;2.17;0.70;;;;;;;;;;5050742;28;20048;-56
2021/09/21 03:49:09;;;;;;;2.92;0.80;;;;;;;;;;5032115;28;20051;-55
2021/09/21 03:51:35;;;;;;;1.95;0.50;;;;;;;;;;5048315;28;20040;-56
2021/09/21 03:54:01;;;;;;;4.38;0.70;;;;;;;;;;5030534;28;20048;-56
2021/09/21 03:56:26;;;;;;;1.88;0.55;;;;;;;;;;5047993;28;20036;-56
2021/09/21 03:58:52;;;;;;;2.08;0.60;;;;;;;;;;5048512;28;20123;-56
2021/09/21 04:01:18;;;;;;;2.20;0.60;;;;;;;;;;5047148;28;20048;-56
2021/09/21 04:03:44;;;;;;;1.08;0.40;;;;;;;;;;5048509;28;20644;-55
2021/09/21 04:06:10;;;;;;;1.70;0.45;;;;;;;;;;5048835;28;20083;-56
2021/09/21 04:08:36;;;;;;;1.50;0.50;;;;;;;;;;5049762;28;20469;-55
2021/09/21 04:11:01;;;;;;;1.42;0.50;;;;;;;;;;5048808;28;20133;-55
2021/09/21 04:13:27;;;;;;;2.00;0.60;;;;;;;;;;5049548;28;20135;-56
2021/09/21 04:15:53;;;;;;;4.57;0.80;;;;;;;;;;5049487;28;20439;-57
2021/09/21 04:18:19;;;;;;;4.35;0.90;;;;;;;;;;5049633;28;20082;-53
2021/09/21 04:20:45;;;;;;;6.65;0.93;;;;;;;;;;5033499;28;20132;-56
2021/09/21 04:23:11;;;;;;;2.95;0.65;;;;;;;;;;5050928;28;20106;-56
2021/09/21 04:25:37;;;;;;;3.25;0.73;;;;;;;;;;5048411;28;20803;-56
2021/09/21 04:28:03;;;;;;;2.53;0.65;;;;;;;;;;5050331;28;20513;-55
2021/09/21 04:30:29;;;;;;;3.28;0.80;;;;;;;;;;5047078;28;20041;-56
2021/09/21 04:32:54;;;;;;;2.33;0.73;;;;;;;;;;5045324;28;20052;-53
2021/09/21 04:35:20;;;;;;;2.30;0.60;;;;;;;;;;5047021;28;20224;-56
2021/09/21 04:37:46;;;;;;;2.05;0.65;;;;;;;;;;5048512;28;20491;-55
2021/09/21 04:40:12;;;;;;;3.47;1.02;;;;;;;;;;5048510;28;20128;-56
2021/09/21 04:42:38;;;;;;;3.25;1.00;;;;;;;;;;5046757;28;20490;-56
2021/09/21 04:45:04;;;;;;;2.58;0.85;;;;;;;;;;5048465;28;20033;-56
2021/09/21 04:47:30;;;;;;;2.83;0.90;;;;;;;;;;5047038;28;20039;-55
2021/09/21 04:49:56;;;;;;;3.25;0.80;;;;;;;;;;5053553;28;20366;-56
2021/09/21 04:52:22;;;;;;;2.60;0.70;;;;;;;;;;5049013;28;20076;-56
2021/09/21 04:54:48;;;;;;;1.88;0.70;;;;;;;;;;5050952;28;20876;-54
2021/09/21 04:57:13;;;;;;;6.75;1.00;;;;;;;;;;5038387;28;20477;-56
2021/09/21 04:59:40;;;;;;;3.70;0.93;;;;;;;;;;5049713;28;20131;-54
2021/09/21 05:02:06;;;;;;;1.85;0.63;;;;;;;;;;5032357;28;20076;-56
2021/09/21 05:04:31;;;;;;;5.03;1.00;;;;;;;;;;5050980;28;20064;-54
2021/09/21 05:06:57;;;;;;;2.80;0.90;;;;;;;;;;5052047;28;20055;-55
2021/09/21 05:09:23;;;;;;;5.72;1.10;;;;;;;;;;5050188;28;20041;-55
2021/09/21 05:11:49;;;;;;;3.75;1.15;;;;;;;;;;5047296;28;20485;-54
2021/09/21 05:14:15;;;;;;;3.42;1.02;;;;;;;;;;5048398;28;20132;-56
2021/09/21 05:16:41;;;;;;;3.90;1.10;;;;;;;;;;5047429;28;20045;-56
2021/09/21 05:19:13;;;;;;;6.15;1.20;;;;;;;;;;5052658;28;20039;-56
2021/09/21 05:21:40;;;;;;;3.40;1.20;;;;;;;;;;5050826;28;20075;-55
2021/09/21 05:24:06;;;;;;;5.72;0.93;;;;;;;;;;5053252;28;20040;-56
2021/09/21 05:26:32;;;;;;;4.70;1.00;;;;;;;;;;5031229;28;20659;-55
2021/09/21 05:28:58;;;;;;;10.32;1.30;;;;;;;;;;5051258;28;20082;-53
2021/09/21 05:31:24;;;;;;;3.63;0.95;;;;;;;;;;5049117;28;20436;-55
2021/09/21 05:33:50;;;;;;;2.58;0.90;;;;;;;;;;5051734;28;20198;-55
2021/09/21 05:36:16;;;;;;;3.53;1.10;;;;;;;;;;5052234;28;20493;-56
2021/09/21 05:38:41;;;;;;;5.63;0.98;;;;;;;;;;5050109;28;20048;-53
2021/09/21 05:41:07;;;;;;;4.38;1.30;;;;;;;;;;5052532;28;20596;-54
2021/09/21 05:43:33;;;;;;;3.88;0.75;;;;;;;;;;5051253;28;20048;-56
2021/09/21 05:45:59;;;;;;;5.32;1.10;;;;;;;;;;5051766;28;20123;-55
2021/09/21 05:48:25;;;;;;;4.82;1.10;;;;;;;;;;5050487;28;20486;-56
2021/09/21 05:50:51;;;;;;;6.85;1.52;;;;;;;;;;5050580;28;20044;-56
2021/09/21 05:53:17;;;;;;;6.60;1.50;;;;;;;;;;5051390;28;20029;-55
2021/09/21 05:55:42;;;;;;;4.30;1.45;;;;;;;;;;5050707;28;20655;-56
2021/09/21 05:58:10;;;;;;;4.35;1.45;;;;;;;;;;5050422;28;20037;-56
2021/09/21 06:00:36;;;;;;;4.15;1.55;;;;;;;;;;5049482;28;20047;-56
2021/09/21 06:03:02;;;;;;;4.43;1.80;;;;;;;;;;5050593;28;20048;-56
2021/09/21 06:05:28;;;;;;;5.07;1.80;;;;;;;;;;5050730;28;20033;-56
2021/09/21 06:07:54;;;;;;;3.10;1.30;;;;;;;;;;5050693;28;20686;-57
2021/09/21 06:10:21;;;;;;;3.95;1.45;;;;;;;;;;5051464;28;20048;-56
2021/09/21 06:12:47;;;;;;;4.10;1.25;;;;;;;;;;5050949;28;20123;-56
2021/09/21 06:15:14;;;;;;;3.42;1.10;;;;;;;;;;5049944;28;20041;-55
2021/09/21 06:17:40;;;;;;;3.47;0.82;;;;;;;;;;5047721;28;20134;-55
2021/09/21 06:20:09;;;;;;;4.20;1.13;;;;;;;;;;5051137;28;20036;-54
2021/09/21 06:22:38;;;;;;;2.60;0.80;;;;;;;;;;5050096;28;20047;-55
2021/09/21 06:25:07;;;;;;;1.50;0.60;;;;;;;;;;5051148;28;20037;-56
2021/09/21 06:27:35;;;;;;;2.83;0.90;;;;;;;;;;5050902;28;20496;-56
2021/09/21 06:30:02;;;;;;;2.90;0.90;;;;;;;;;;5050490;28;20484;-56
2021/09/21 06:32:28;;;;;;;2.50;0.60;;;;;;;;;;5049444;28;20962;-55
2021/09/21 06:34:54;;;;;;;3.17;0.88;;;;;;;;;;5051482;28;20029;-55
2021/09/21 06:37:19;;;;;;;6.40;1.67;;;;;;;;;;5049706;28;20904;-56
2021/09/21 06:39:45;;;;;;;3.67;1.20;;;;;;;;;;5032286;28;20037;-56
2021/09/21 06:42:11;;;;;;;4.35;1.20;;;;;;;;;;5050360;28;20041;-56
2021/09/21 06:44:37;;;;;;;3.50;0.75;;;;;;;;;;5034904;28;20036;-52
2021/09/21 06:47:03;;;;;;;3.10;0.93;;;;;;;;;;5050899;28;20119;-56
2021/09/21 06:49:30;;;;;;;3.03;1.10;;;;;;;;;;5050599;28;20167;-54
2021/09/21 06:51:56;;;;;;;3.83;0.80;;;;;;;;;;5050724;28;20049;-57
2021/09/21 06:54:22;;;;;;;4.20;0.80;;;;;;;;;;5049197;28;20101;-56
2021/09/21 06:56:48;;;;;;;2.40;0.90;;;;;;;;;;5050867;28;20048;-55
2021/09/21 06:59:14;;;;;;;2.08;0.75;;;;;;;;;;5050144;28;20121;-56
2021/09/21 07:01:39;;;;;;;5.22;1.00;;;;;;;;;;5051440;28;21056;-56
2021/09/21 07:04:05;;;;;;;2.97;0.80;;;;;;;;;;5052271;28;20128;-56
2021/09/21 07:06:31;;;;;;;2.50;0.95;;;;;;;;;;5049579;28;20089;-56
2021/09/21 07:08:57;;;;;;;3.10;1.02;;;;;;;;;;5052120;28;20484;-55
2021/09/21 07:11:23;;;;;;;3.95;1.17;;;;;;;;;;5050751;28;20653;-56
2021/09/21 07:13:49;;;;;;;4.75;1.10;;;;;;;;;;5050119;28;20092;-56
2021/09/21 07:16:15;;;;;;;3.45;1.00;;;;;;;;;;5051242;28;20041;-54
2021/09/21 07:18:41;;;;;;;2.95;1.00;;;;;;;;;;5049412;28;20048;-55
2021/09/21 07:21:07;;;;;;;2.83;0.93;;;;;;;;;;5032383;28;20029;-56
2021/09/21 07:23:33;;;;;;;9.05;1.33;;;;;;;;;;5049310;28;20067;-55
2021/09/21 07:25:59;;;;;;;6.38;1.42;;;;;;;;;;5051534;28;20057;-56
2021/09/21 07:28:25;;;;;;;3.35;1.20;;;;;;;;;;5049276;28;20203;-56
2021/09/21 07:30:51;;;;;;;6.50;1.38;;;;;;;;;;5030600;28;20048;-54
2021/09/21 07:33:17;;;;;;;5.35;1.25;;;;;;;;;;5047934;28;20396;-55
2021/09/21 07:35:44;;;;;;;2.63;1.00;;;;;;;;;;5049410;28;20136;-56
2021/09/21 07:38:10;;;;;;;3.60;1.20;;;;;;;;;;5048959;28;20144;-56
2021/09/21 07:40:36;;;;;;;3.70;1.10;;;;;;;;;;5047204;28;20560;-56
2021/09/21 07:43:03;;;;;;;2.58;0.90;;;;;;;;;;5050201;28;20048;-56
2021/09/21 07:45:29;;;;;;;2.30;0.73;;;;;;;;;;5048950;28;20040;-55
2021/09/21 07:47:55;;;;;;;3.75;0.95;;;;;;;;;;5032043;28;20460;-53
2021/09/21 07:50:22;;;;;;;2.50;0.70;;;;;;;;;;5048668;28;20510;-56
2021/09/21 07:52:48;;;;;;;2.35;0.63;;;;;;;;;;5048451;28;20528;-56
2021/09/21 07:55:15;;;;;;;2.60;0.80;;;;;;;;;;5031488;28;20025;-55
2021/09/21 07:57:41;;;;;;;3.28;0.90;;;;;;;;;;5047088;28;20045;-56
2021/09/21 08:00:09;;;;;;;2.83;0.90;;;;;;;;;;5048716;28;20037;-56
2021/09/21 08:02:35;;;;;;;2.83;0.93;;;;;;;;;;5047728;28;20037;-56
2021/09/21 08:05:01;;;;;;;1.95;0.70;;;;;;;;;;5048810;28;20041;-56
2021/09/21 08:07:29;;;;;;;2.78;0.90;;;;;;;;;;5047149;28;20047;-54
2021/09/21 08:09:55;;;;;;;3.75;0.88;;;;;;;;;;5047435;28;20068;-57
2021/09/21 08:12:21;;;;;;;3.05;1.00;;;;;;;;;;5046672;28;20106;-55
2021/09/21 08:14:49;;;;;;;3.13;1.05;;;;;;;;;;5049164;28;20442;-56
2021/09/21 08:17:16;;;;;;;3.38;0.90;;;;;;;;;;5048629;28;20114;-56
2021/09/21 08:19:42;;;;;;;2.40;0.90;;;;;;;;;;5048504;28;20033;-53
2021/09/21 08:22:08;;;;;;;2.53;0.90;;;;;;;;;;5048995;28;20041;-56
2021/09/21 08:24:34;;;;;;;5.90;1.00;;;;;;;;;;5047689;28;20123;-55
2021/09/21 08:27:00;;;;;;;3.67;1.00;;;;;;;;;;5047535;28;20051;-55
2021/09/21 08:29:26;;;;;;;3.05;1.05;;;;;;;;;;5048091;28;20401;-55
2021/09/21 08:31:52;;;;;;;3.10;0.90;;;;;;;;;;5048346;28;20060;-55
2021/09/21 08:34:17;;;;;;;2.60;0.95;;;;;;;;;;5049926;28;20040;-55
2021/09/21 08:36:43;;;;;;;2.30;0.80;;;;;;;;;;5047285;28;20098;-53
2021/09/21 08:39:09;;;;;;;4.45;0.90;;;;;;;;;;5047621;28;20076;-56
2021/09/21 08:41:36;;;;;;;2.05;0.60;;;;;;;;;;5046638;28;20163;-55
2021/09/21 08:44:02;;;;;;;3.08;0.90;;;;;;;;;;5046877;28;20037;-55
2021/09/21 08:46:28;;;;;;;3.17;0.70;;;;;;;;;;5047813;28;20041;-54
2021/09/21 08:48:54;;;;;;;5.60;1.15;;;;;;;;;;5046377;28;20043;-53
2021/09/21 08:51:20;;;;;;;1.88;0.70;;;;;;;;;;5048084;28;20059;-55
2021/09/21 08:53:46;;;;;;;3.28;0.80;;;;;;;;;;5047963;28;20094;-55
2021/09/21 08:56:12;;;;;;;1.88;0.60;;;;;;;;;;5048256;28;20495;-55
2021/09/21 08:58:38;;;;;;;2.72;0.82;;;;;;;;;;5045230;28;20543;-55
2021/09/21 09:01:14;;;;;;;1.95;0.68;;;;;;;;;;5027012;28;20039;-55
2021/09/21 09:03:40;;;;;;;2.50;0.82;;;;;;;;;;5046942;28;20041;-54
2021/09/21 09:06:08;;;;;;;3.53;0.60;;;;;;;;;;5048415;28;20036;-56
2021/09/21 09:08:36;;;;;;;2.53;0.70;;;;;;;;;;5047254;28;20033;-55
2021/09/21 09:11:17;;;;;;;2.40;0.80;;;;;;;;;;5045734;28;20497;-55
2021/09/21 09:13:44;;;;;;;2.55;0.80;;;;;;;;;;5046133;28;20051;-56
2021/09/21 09:16:14;;;;;;;2.72;0.70;;;;;;;;;;5047323;28;20076;-56
2021/09/21 09:18:40;;;;;;;1.95;0.60;;;;;;;;;;5047602;28;21049;-54
2021/09/21 09:21:07;;;;;;;2.85;0.73;;;;;;;;;;5046342;28;20037;-54
2021/09/21 09:23:32;;;;;;;2.33;0.65;;;;;;;;;;5029078;28;20045;-54
2021/09/21 09:25:59;;;;;;;2.03;0.75;;;;;;;;;;5049308;28;20086;-54
2021/09/21 09:28:26;;;;;;;3.95;0.80;;;;;;;;;;5047260;28;20044;-55
2021/09/21 09:30:53;;;;;;;1.83;0.60;;;;;;;;;;5046277;28;20064;-55
2021/09/21 09:33:20;;;;;;;2.10;0.70;;;;;;;;;;5045797;28;20130;-55
2021/09/21 09:35:46;;;;;;;2.40;0.80;;;;;;;;;;5048068;28;20079;-55
2021/09/21 09:38:13;;;;;;;4.65;0.70;;;;;;;;;;5047104;28;20568;-54
2021/09/21 09:40:47;;;;;;;1.95;0.68;;;;;;;;;;5045712;28;20048;-54
2021/09/21 09:43:14;;;;;;;2.30;0.70;;;;;;;;;;5046027;28;20210;-54
2021/09/21 09:45:41;;;;;;;2.72;0.85;;;;;;;;;;5047500;28;20824;-52
2021/09/21 09:48:08;;;;;;;2.45;0.70;;;;;;;;;;5048395;28;20044;-55
2021/09/21 09:50:35;;;;;;;2.40;0.70;;;;;;;;;;5045080;28;20037;-56
2021/09/21 09:53:03;;;;;;;2.20;0.70;;;;;;;;;;5046567;28;20036;-55
2021/09/21 09:55:29;;;;;;;2.45;0.80;;;;;;;;;;5046112;28;20118;-54
2021/09/21 09:57:56;;;;;;;2.35;0.70;;;;;;;;;;5048450;28;21198;-55
2021/09/21 10:00:22;;;;;;;2.80;0.80;;;;;;;;;;5046621;28;20037;-55
2021/09/21 10:02:48;;;;;;;2.75;0.80;;;;;;;;;;5049377;28;20413;-55
2021/09/21 10:05:14;;;;;;;2.05;0.70;;;;;;;;;;5053435;28;20045;-56
2021/09/21 10:07:40;;;;;;;2.15;0.70;;;;;;;;;;5050832;28;20149;-55
2021/09/21 10:10:06;;;;;;;2.20;0.82;;;;;;;;;;5051079;28;22041;-55
2021/09/21 10:12:32;;;;;;;2.30;0.80;;;;;;;;;;5051653;28;20048;-55
2021/09/21 10:14:58;;;;;;;2.50;0.80;;;;;;;;;;5054515;28;20060;-55
2021/09/21 10:17:25;;;;;;;2.20;0.80;;;;;;;;;;5051965;28;20073;-56
2021/09/21 10:19:55;;;;;;;3.38;0.82;;;;;;;;;;5054062;28;20048;-56
2021/09/21 10:22:25;;;;;;;2.35;0.70;;;;;;;;;;5053566;28;20048;-55
2021/09/21 10:24:50;;;;;;;2.60;0.70;;;;;;;;;;5053196;28;20051;-55
2021/09/21 10:27:19;;;;;;;2.15;0.80;;;;;;;;;;5051889;28;20045;-55
2021/09/21 10:29:45;;;;;;;2.13;0.70;;;;;;;;;;5033132;28;20055;-56
2021/09/21 10:32:17;;;;;;;2.70;0.65;;;;;;;;;;5048873;28;20045;-55
2021/09/21 10:34:44;;;;;;;2.75;0.68;;;;;;;;;;5051635;28;20127;-52
2021/09/21 10:37:11;;;;;;;3.35;0.80;;;;;;;;;;5052529;28;20036;-55
2021/09/21 10:39:37;;;;;;;1.85;0.70;;;;;;;;;;5030846;28;20045;-54
2021/09/21 10:42:07;;;;;;;3.00;0.93;;;;;;;;;;5049297;28;20081;-56
2021/09/21 10:44:33;;;;;;;3.28;0.82;;;;;;;;;;5048810;28;20111;-56
2021/09/21 10:47:01;;;;;;;3.40;0.77;;;;;;;;;;5032125;28;20041;-55
2021/09/21 10:49:28;;;;;;;3.45;0.80;;;;;;;;;;5049024;28;20094;-55
2021/09/21 10:51:57;;;;;;;2.35;0.73;;;;;;;;;;5049543;28;20049;-56
2021/09/21 10:54:34;;;;;;;2.80;0.90;;;;;;;;;;5051342;28;20048;-55
2021/09/21 10:57:04;;;;;;;2.47;0.85;;;;;;;;;;5050586;28;20125;-54
2021/09/21 10:59:30;;;;;;;3.67;0.98;;;;;;;;;;5048467;28;20132;-56
2021/09/21 11:01:56;;;;;;;3.72;0.80;;;;;;;;;;5051415;28;20028;-56
2021/09/21 11:04:22;;;;;;;3.08;0.93;;;;;;;;;;5049828;28;20942;-56
2021/09/21 11:06:48;;;;;;;3.63;0.90;;;;;;;;;;5049153;28;20032;-55
2021/09/21 11:09:26;;;;;;;2.55;0.88;;;;;;;;;;5050450;28;20048;-55
2021/09/21 11:11:55;;;;;;;6.38;0.88;;;;;;;;;;5050332;28;20458;-57
2021/09/21 11:14:22;;;;;;;2.45;0.88;;;;;;;;;;5053770;28;20044;-55
2021/09/21 11:16:54;;;;;;;4.22;0.95;;;;;;;;;;5051455;28;20044;-55
2021/09/21 11:19:27;;;;;;;2.63;1.00;;;;;;;;;;5050405;28;20182;-54
2021/09/21 11:21:58;;;;;;;2.83;1.00;;;;;;;;;;5033738;28;20036;-54
2021/09/21 11:24:23;;;;;;;2.33;0.85;;;;;;;;;;5028992;28;20044;-54
2021/09/21 11:26:56;;;;;;;3.05;0.80;;;;;;;;;;5051046;28;20147;-54
2021/09/21 11:29:23;;;;;;;3.20;1.05;;;;;;;;;;5049055;28;20064;-55
2021/09/21 11:31:50;;;;;;;3.47;1.20;;;;;;;;;;5049126;28;20051;-55
2021/09/21 11:34:16;;;;;;;2.78;0.80;;;;;;;;;;5048898;28;20043;-55
2021/09/21 11:36:49;;;;;;;3.20;0.90;;;;;;;;;;5048576;28;20045;-56
2021/09/21 11:39:15;;;;;;;2.75;0.90;;;;;;;;;;5047990;28;20452;-54
2021/09/21 11:41:40;;;;;;;3.75;0.90;;;;;;;;;;5048922;28;20052;-56
2021/09/21 11:44:06;;;;;;;2.83;0.88;;;;;;;;;;5049176;28;20071;-55
2021/09/21 11:46:32;;;;;;;2.88;1.00;;;;;;;;;;5048197;28;20033;-56
2021/09/21 11:48:59;;;;;;;4.70;1.08;;;;;;;;;;5049278;28;20044;-56
2021/09/21 11:51:25;;;;;;;4.25;1.10;;;;;;;;;;5049221;28;20102;-54
2021/09/21 11:53:54;;;;;;;6.47;1.10;;;;;;;;;;5047115;28;20097;-54
2021/09/21 11:56:21;;;;;;;3.15;0.98;;;;;;;;;;5048094;28;20501;-55
2021/09/21 11:58:46;;;;;;;10.13;1.92;;;;;;;;;;5048705;28;20074;-55
2021/09/21 12:01:13;;;;;;;2.67;1.00;;;;;;;;;;5049220;28;20053;-54
2021/09/21 12:03:38;;;;;;;1.95;0.68;;;;;;;;;;5047482;28;20524;-55
2021/09/21 12:06:05;;;;;;;3.40;0.80;;;;;;;;;;5050075;28;20048;-56
2021/09/21 12:08:34;;;;;;;2.75;0.90;;;;;;;;;;5048262;28;20493;-55
2021/09/21 12:11:08;;;;;;;2.55;0.65;;;;;;;;;;5048508;28;20159;-56
2021/09/21 12:13:33;;;;;;;2.22;0.70;;;;;;;;;;5046249;28;20470;-56
2021/09/21 12:16:01;;;;;;;2.45;0.70;;;;;;;;;;5049803;28;20047;-55
2021/09/21 12:18:28;;;;;;;2.70;0.82;;;;;;;;;;5047186;28;20108;-55
2021/09/21 12:20:55;;;;;;;3.25;0.90;;;;;;;;;;5050673;28;20055;-56
2021/09/21 12:23:22;;;;;;;3.15;0.90;;;;;;;;;;5050919;28;20041;-55
2021/09/21 12:25:50;;;;;;;4.93;0.90;;;;;;;;;;5051008;28;20102;-55
2021/09/21 12:28:15;;;;;;;1.95;0.60;;;;;;;;;;5047840;28;20043;-56
2021/09/21 12:30:42;;;;;;;2.58;0.70;;;;;;;;;;5047743;28;20045;-56
2021/09/21 12:33:10;;;;;;;4.25;0.88;;;;;;;;;;5049296;28;20500;-53
2021/09/21 12:35:37;;;;;;;4.68;0.82;;;;;;;;;;5047987;28;20040;-54
2021/09/21 12:38:04;;;;;;;2.85;0.82;;;;;;;;;;5046194;28;20702;-55
2021/09/21 12:40:30;;;;;;;4.82;0.63;;;;;;;;;;5049805;28;20106;-54
2021/09/21 12:42:56;;;;;;;5.25;0.88;;;;;;;;;;5049261;28;20049;-55
2021/09/21 12:45:22;;;;;;;3.97;0.70;;;;;;;;;;5048499;28;20040;-55
2021/09/21 12:47:51;;;;;;;2.15;0.63;;;;;;;;;;5037507;28;20190;-54
2021/09/21 12:50:18;;;;;;;5.55;1.00;;;;;;;;;;5049877;28;20493;-55
2021/09/21 12:52:51;;;;;;;6.03;1.20;;;;;;;;;;5048107;28;20121;-56
2021/09/21 12:55:26;;;;;;;4.15;1.48;;;;;;;;;;5047615;28;20116;-53
2021/09/21 12:57:54;;;;;;;2.50;0.80;;;;;;;;;;5047075;28;20146;-53
2021/09/21 13:00:20;;;;;;;2.90;0.85;;;;;;;;;;5047164;28;20040;-55
2021/09/21 13:02:45;;;;;;;2.28;0.80;;;;;;;;;;5046964;28;20039;-56
2021/09/21 13:05:13;;;;;;;2.72;0.73;;;;;;;;;;5047466;28;20033;-54
2021/09/21 13:07:39;;;;;;;3.97;0.98;;;;;;;;;;5045496;28;20044;-54
2021/09/21 13:10:05;;;;;;;9.10;0.85;;;;;;;;;;5047158;28;20114;-55
2021/09/21 13:12:31;;;;;;;2.92;0.80;;;;;;;;;;5045846;28;20041;-55
2021/09/21 13:14:57;;;;;;;7.15;1.10;;;;;;;;;;5046695;28;20051;-56
2021/09/21 13:17:23;;;;;;;3.22;0.90;;;;;;;;;;5046141;28;20045;-55
2021/09/21 13:19:48;;;;;;;3.28;0.82;;;;;;;;;;5048883;28;20041;-55
2021/09/21 13:22:14;;;;;;;3.40;1.15;;;;;;;;;;5048110;28;20044;-55
2021/09/21 13:24:40;;;;;;;2.92;0.73;;;;;;;;;;5048324;28;20568;-54
2021/09/21 13:27:06;;;;;;;3.03;1.00;;;;;;;;;;5052107;28;20045;-54
2021/09/21 13:29:32;;;;;;;4.13;1.33;;;;;;;;;;5047380;28;20086;-55
2021/09/21 13:31:58;;;;;;;4.43;1.20;;;;;;;;;;5048055;28;20045;-55
2021/09/21 13:34:24;;;;;;;3.53;1.02;;;;;;;;;;5047096;28;21980;-55
2021/09/21 13:36:49;;;;;;;6.88;1.00;;;;;;;;;;5049354;28;20050;-54
2021/09/21 13:39:15;;;;;;;4.63;1.35;;;;;;;;;;5034061;28;20036;-55
2021/09/21 13:41:41;;;;;;;7.25;1.38;;;;;;;;;;5049797;28;20107;-55
2021/09/21 13:44:08;;;;;;;6.80;2.33;;;;;;;;;;5050470;28;20048;-54
2021/09/21 13:46:34;;;;;;;6.72;1.20;;;;;;;;;;5049848;28;20036;-55
2021/09/21 13:48:59;;;;;;;3.95;1.08;;;;;;;;;;5052516;28;20063;-55
2021/09/21 13:51:25;;;;;;;8.02;1.70;;;;;;;;;;5051671;28;20115;-52
2021/09/21 13:53:51;;;;;;;4.30;1.25;;;;;;;;;;5052290;28;20397;-54
2021/09/21 13:56:17;;;;;;;5.32;1.02;;;;;;;;;;5052494;28;20176;-53
2021/09/21 13:58:43;;;;;;;18.33;2.35;;;;;;;;;;5050152;28;20048;-52
2021/09/21 14:01:09;;;;;;;7.95;1.30;;;;;;;;;;5052477;28;20051;-54
2021/09/21 14:03:34;;;;;;;15.90;2.45;;;;;;;;;;5051819;28;20032;-55
2021/09/21 14:06:01;;;;;;;10.93;3.42;;;;;;;;;;5049675;28;20032;-55
2021/09/21 14:08:26;;;;;;;5.85;2.28;;;;;;;;;;5030537;28;20076;-55
2021/09/21 14:10:52;;;;;;;6.03;1.67;;;;;;;;;;5051694;28;20124;-55
2021/09/21 14:13:18;;;;;;;4.68;1.20;;;;;;;;;;5049811;28;20504;-55
2021/09/21 14:15:44;;;;;;;5.72;1.10;;;;;;;;;;5051688;28;20047;-55
2021/09/21 14:18:12;;;;;;;4.10;1.30;;;;;;;;;;5052737;28;20040;-52
2021/09/21 14:20:38;;;;;;;4.93;1.23;;;;;;;;;;5050997;28;20396;-53
2021/09/21 14:23:04;;;;;;;10.80;1.30;;;;;;;;;;5051314;28;20044;-55
2021/09/21 14:25:30;;;;;;;7.75;1.30;;;;;;;;;;5049592;28;20036;-55
2021/09/21 14:27:56;;;;;;;3.38;0.88;;;;;;;;;;5053329;28;20083;-55
2021/09/21 14:30:22;;;;;;;1.17;0.50;;;;;;;;;;5051448;28;20040;-54
2021/09/21 14:32:48;;;;;;;1.88;0.60;;;;;;;;;;5051858;28;20049;-53
2021/09/21 14:35:15;;;;;;;2.50;0.88;;;;;;;;;;5053671;28;20143;-52
2021/09/21 14:37:41;;;;;;;10.90;1.00;;;;;;;;;;5051627;28;20049;-52
2021/09/21 14:40:08;;;;;;;3.70;0.60;;;;;;;;;;5051868;28;20123;-54
2021/09/21 14:42:34;;;;;;;3.35;0.90;;;;;;;;;;5050605;28;20049;-54
2021/09/21 14:45:00;;;;;;;3.15;0.70;;;;;;;;;;5050319;28;20040;-55
2021/09/21 14:47:26;;;;;;;2.58;0.70;;;;;;;;;;5048562;28;20032;-55
2021/09/21 14:49:52;;;;;;;4.78;0.85;;;;;;;;;;5051316;28;20102;-54
2021/09/21 14:52:18;;;;;;;4.57;0.85;;;;;;;;;;5051077;28;20053;-55